Virginia Point, Texas
Current Conditions -  °F | °C
As of 6:52 PM on Thursday 27 Nov 2014 (Local Time) from KGLS Reporting Station
Clear Clear  
Wind Chill: 54°   Ceiling: Unl
Heat Index: 54°   Visibility: 10mi
Dew Point: 42°   Wind: 5mph
Humidity: 64%   Direction: 120°ESE
Pressure: 30.43"   Gusts: NA
Location:  29.3093°N, 94.7816°W
Report Text: KGLS 280052Z AUTO 12004KT 10SM CLR 12/06 A3043 RMK AO2 SLP305 T01220056
Loading
Personal Weather Stations






























Interactive Weather Map New forecast layout! Learn more

10-Day Weather Forecast

Advertisements
Track Severe Weather on mobile